sensor_id;sensor_type;location;lat;lon;timestamp;P1;durP1;ratioP1;P2;durP2;ratioP2
45522;SDS011;31254;51.680;5.394;2023-09-19T00:00:55;6.03;;;1.60;;
45522;SDS011;31254;51.680;5.394;2023-09-19T00:03:23;6.40;;;1.75;;
45522;SDS011;31254;51.680;5.394;2023-09-19T00:05:52;8.40;;;2.17;;
45522;SDS011;31254;51.680;5.394;2023-09-19T00:08:19;7.50;;;2.28;;
45522;SDS011;31254;51.680;5.394;2023-09-19T00:10:50;10.55;;;2.42;;
45522;SDS011;31254;51.680;5.394;2023-09-19T00:13:17;7.93;;;2.00;;
45522;SDS011;31254;51.680;5.394;2023-09-19T00:15:46;8.40;;;1.73;;
45522;SDS011;31254;51.680;5.394;2023-09-19T00:18:16;7.13;;;1.60;;
45522;SDS011;31254;51.680;5.394;2023-09-19T00:20:45;6.25;;;1.88;;
45522;SDS011;31254;51.680;5.394;2023-09-19T00:23:14;11.48;;;2.42;;
45522;SDS011;31254;51.680;5.394;2023-09-19T00:25:41;8.50;;;1.60;;
45522;SDS011;31254;51.680;5.394;2023-09-19T00:28:08;8.95;;;2.10;;
45522;SDS011;31254;51.680;5.394;2023-09-19T00:30:36;6.78;;;1.80;;
45522;SDS011;31254;51.680;5.394;2023-09-19T00:33:05;7.65;;;2.00;;
45522;SDS011;31254;51.680;5.394;2023-09-19T00:35:34;5.68;;;1.95;;
45522;SDS011;31254;51.680;5.394;2023-09-19T00:38:01;6.10;;;2.00;;
45522;SDS011;31254;51.680;5.394;2023-09-19T00:40:28;6.65;;;1.90;;
45522;SDS011;31254;51.680;5.394;2023-09-19T00:42:59;8.40;;;1.98;;
45522;SDS011;31254;51.680;5.394;2023-09-19T00:45:26;7.57;;;1.92;;
45522;SDS011;31254;51.680;5.394;2023-09-19T00:48:09;7.90;;;1.88;;
45522;SDS011;31254;51.680;5.394;2023-09-19T00:50:37;5.75;;;1.92;;
45522;SDS011;31254;51.680;5.394;2023-09-19T00:53:08;6.80;;;1.90;;
45522;SDS011;31254;51.680;5.394;2023-09-19T00:55:36;5.78;;;1.67;;
45522;SDS011;31254;51.680;5.394;2023-09-19T00:58:03;8.40;;;1.70;;
45522;SDS011;31254;51.680;5.394;2023-09-19T01:00:33;7.75;;;1.85;;
45522;SDS011;31254;51.680;5.394;2023-09-19T01:03:00;8.70;;;1.95;;
45522;SDS011;31254;51.680;5.394;2023-09-19T01:05:30;6.97;;;1.67;;
45522;SDS011;31254;51.680;5.394;2023-09-19T01:07:57;7.40;;;2.35;;
45522;SDS011;31254;51.680;5.394;2023-09-19T01:10:24;5.97;;;1.70;;
45522;SDS011;31254;51.680;5.394;2023-09-19T01:15:59;6.22;;;1.70;;
45522;SDS011;31254;51.680;5.394;2023-09-19T01:21:57;11.65;;;1.92;;
45522;SDS011;31254;51.680;5.394;2023-09-19T01:30:13;8.43;;;1.83;;
45522;SDS011;31254;51.680;5.394;2023-09-19T01:32:43;6.10;;;1.77;;
45522;SDS011;31254;51.680;5.394;2023-09-19T01:35:13;5.68;;;1.77;;
45522;SDS011;31254;51.680;5.394;2023-09-19T01:37:40;6.97;;;1.90;;
45522;SDS011;31254;51.680;5.394;2023-09-19T01:40:12;6.20;;;1.55;;
45522;SDS011;31254;51.680;5.394;2023-09-19T01:42:45;5.88;;;1.50;;
45522;SDS011;31254;51.680;5.394;2023-09-19T01:51:08;6.28;;;1.95;;
45522;SDS011;31254;51.680;5.394;2023-09-19T01:56:16;5.10;;;1.55;;
45522;SDS011;31254;51.680;5.394;2023-09-19T01:58:51;8.07;;;1.90;;
45522;SDS011;31254;51.680;5.394;2023-09-19T02:01:22;6.75;;;1.75;;
45522;SDS011;31254;51.680;5.394;2023-09-19T02:03:51;8.13;;;2.15;;
45522;SDS011;31254;51.680;5.394;2023-09-19T02:06:18;9.38;;;1.98;;
45522;SDS011;31254;51.680;5.394;2023-09-19T02:08:45;7.00;;;1.70;;
45522;SDS011;31254;51.680;5.394;2023-09-19T02:11:13;5.55;;;1.80;;
45522;SDS011;31254;51.680;5.394;2023-09-19T02:13:41;12.00;;;2.70;;
45522;SDS011;31254;51.680;5.394;2023-09-19T02:16:09;7.88;;;2.28;;
45522;SDS011;31254;51.680;5.394;2023-09-19T02:18:38;6.65;;;1.73;;
45522;SDS011;31254;51.680;5.394;2023-09-19T02:21:05;8.57;;;2.17;;
45522;SDS011;31254;51.680;5.394;2023-09-19T02:23:38;9.15;;;2.03;;
45522;SDS011;31254;51.680;5.394;2023-09-19T02:26:06;5.90;;;2.05;;
45522;SDS011;31254;51.680;5.394;2023-09-19T02:28:33;7.60;;;2.20;;
45522;SDS011;31254;51.680;5.394;2023-09-19T02:31:02;8.65;;;1.83;;
45522;SDS011;31254;51.680;5.394;2023-09-19T02:33:31;7.72;;;2.13;;
45522;SDS011;31254;51.680;5.394;2023-09-19T02:35:59;10.15;;;2.22;;
45522;SDS011;31254;51.680;5.394;2023-09-19T02:38:41;8.50;;;1.85;;
45522;SDS011;31254;51.680;5.394;2023-09-19T02:41:08;6.60;;;1.90;;
45522;SDS011;31254;51.680;5.394;2023-09-19T02:43:35;6.82;;;1.50;;
45522;SDS011;31254;51.680;5.394;2023-09-19T02:46:03;7.97;;;1.95;;
45522;SDS011;31254;51.680;5.394;2023-09-19T02:48:29;5.82;;;1.55;;
45522;SDS011;31254;51.680;5.394;2023-09-19T02:50:59;8.70;;;1.95;;
45522;SDS011;31254;51.680;5.394;2023-09-19T02:53:26;7.75;;;2.25;;
45522;SDS011;31254;51.680;5.394;2023-09-19T02:55:53;7.95;;;1.90;;
45522;SDS011;31254;51.680;5.394;2023-09-19T02:58:19;6.40;;;1.80;;
45522;SDS011;31254;51.680;5.394;2023-09-19T03:00:49;7.97;;;1.77;;
45522;SDS011;31254;51.680;5.394;2023-09-19T03:03:18;7.30;;;1.77;;
45522;SDS011;31254;51.680;5.394;2023-09-19T03:05:45;9.20;;;1.90;;
45522;SDS011;31254;51.680;5.394;2023-09-19T03:08:15;10.45;;;1.92;;
45522;SDS011;31254;51.680;5.394;2023-09-19T03:10:46;5.57;;;1.63;;
45522;SDS011;31254;51.680;5.394;2023-09-19T03:13:14;6.93;;;1.85;;
45522;SDS011;31254;51.680;5.394;2023-09-19T03:15:42;7.43;;;1.58;;
45522;SDS011;31254;51.680;5.394;2023-09-19T03:18:14;7.85;;;1.75;;
45522;SDS011;31254;51.680;5.394;2023-09-19T03:20:40;7.15;;;1.70;;
45522;SDS011;31254;51.680;5.394;2023-09-19T03:23:07;8.85;;;1.88;;
45522;SDS011;31254;51.680;5.394;2023-09-19T03:25:34;11.55;;;2.10;;
45522;SDS011;31254;51.680;5.394;2023-09-19T03:28:02;7.30;;;1.92;;
45522;SDS011;31254;51.680;5.394;2023-09-19T03:30:32;6.20;;;1.55;;
45522;SDS011;31254;51.680;5.394;2023-09-19T03:33:00;7.55;;;2.00;;
45522;SDS011;31254;51.680;5.394;2023-09-19T03:35:27;5.78;;;1.83;;
45522;SDS011;31254;51.680;5.394;2023-09-19T03:37:54;7.78;;;1.85;;
45522;SDS011;31254;51.680;5.394;2023-09-19T03:40:21;5.65;;;1.88;;
45522;SDS011;31254;51.680;5.394;2023-09-19T03:42:49;6.90;;;1.52;;
45522;SDS011;31254;51.680;5.394;2023-09-19T03:45:16;9.20;;;1.65;;
45522;SDS011;31254;51.680;5.394;2023-09-19T03:47:44;7.57;;;1.70;;
45522;SDS011;31254;51.680;5.394;2023-09-19T03:50:14;6.03;;;1.83;;
45522;SDS011;31254;51.680;5.394;2023-09-19T03:52:44;9.77;;;2.17;;
45522;SDS011;31254;51.680;5.394;2023-09-19T03:55:11;7.25;;;1.70;;
45522;SDS011;31254;51.680;5.394;2023-09-19T03:57:38;9.48;;;1.70;;
45522;SDS011;31254;51.680;5.394;2023-09-19T04:00:08;8.25;;;1.60;;
45522;SDS011;31254;51.680;5.394;2023-09-19T04:02:39;6.10;;;1.50;;
45522;SDS011;31254;51.680;5.394;2023-09-19T04:05:06;9.07;;;1.52;;
45522;SDS011;31254;51.680;5.394;2023-09-19T04:07:33;11.02;;;1.88;;
45522;SDS011;31254;51.680;5.394;2023-09-19T04:10:01;6.90;;;2.00;;
45522;SDS011;31254;51.680;5.394;2023-09-19T04:12:28;7.28;;;1.55;;
45522;SDS011;31254;51.680;5.394;2023-09-19T04:14:55;7.97;;;1.90;;
45522;SDS011;31254;51.680;5.394;2023-09-19T04:17:22;6.80;;;1.88;;
45522;SDS011;31254;51.680;5.394;2023-09-19T04:19:50;5.38;;;1.50;;
45522;SDS011;31254;51.680;5.394;2023-09-19T04:22:17;8.25;;;1.70;;
45522;SDS011;31254;51.680;5.394;2023-09-19T04:24:44;9.85;;;1.85;;
45522;SDS011;31254;51.680;5.394;2023-09-19T04:27:10;9.38;;;1.90;;
45522;SDS011;31254;51.680;5.394;2023-09-19T04:29:41;6.05;;;1.63;;
45522;SDS011;31254;51.680;5.394;2023-09-19T04:32:10;5.53;;;1.70;;
45522;SDS011;31254;51.680;5.394;2023-09-19T04:34:39;7.50;;;1.65;;
45522;SDS011;31254;51.680;5.394;2023-09-19T04:37:06;7.40;;;1.60;;
45522;SDS011;31254;51.680;5.394;2023-09-19T04:39:33;6.50;;;1.55;;
45522;SDS011;31254;51.680;5.394;2023-09-19T04:42:00;7.93;;;1.70;;
45522;SDS011;31254;51.680;5.394;2023-09-19T04:44:27;5.50;;;1.33;;
45522;SDS011;31254;51.680;5.394;2023-09-19T04:46:54;8.52;;;1.58;;
45522;SDS011;31254;51.680;5.394;2023-09-19T04:49:21;4.55;;;1.70;;
45522;SDS011;31254;51.680;5.394;2023-09-19T04:51:48;8.57;;;2.40;;
45522;SDS011;31254;51.680;5.394;2023-09-19T04:54:18;5.22;;;1.38;;
45522;SDS011;31254;51.680;5.394;2023-09-19T04:56:45;9.18;;;1.60;;
45522;SDS011;31254;51.680;5.394;2023-09-19T04:59:12;9.23;;;2.28;;
45522;SDS011;31254;51.680;5.394;2023-09-19T05:01:41;5.65;;;1.58;;
45522;SDS011;31254;51.680;5.394;2023-09-19T05:04:14;7.97;;;1.95;;
45522;SDS011;31254;51.680;5.394;2023-09-19T05:06:41;5.72;;;1.45;;
45522;SDS011;31254;51.680;5.394;2023-09-19T05:09:21;6.90;;;1.75;;
45522;SDS011;31254;51.680;5.394;2023-09-19T05:11:49;13.32;;;2.03;;
45522;SDS011;31254;51.680;5.394;2023-09-19T05:14:17;7.80;;;1.63;;
45522;SDS011;31254;51.680;5.394;2023-09-19T05:16:46;9.27;;;1.48;;
45522;SDS011;31254;51.680;5.394;2023-09-19T05:19:13;5.75;;;1.95;;
45522;SDS011;31254;51.680;5.394;2023-09-19T05:21:40;10.73;;;2.22;;
45522;SDS011;31254;51.680;5.394;2023-09-19T05:24:07;9.43;;;2.33;;
45522;SDS011;31254;51.680;5.394;2023-09-19T05:26:36;4.78;;;1.38;;
45522;SDS011;31254;51.680;5.394;2023-09-19T05:29:03;9.07;;;1.85;;
45522;SDS011;31254;51.680;5.394;2023-09-19T05:31:31;9.80;;;1.90;;
45522;SDS011;31254;51.680;5.394;2023-09-19T05:33:58;8.90;;;1.90;;
45522;SDS011;31254;51.680;5.394;2023-09-19T05:36:27;5.75;;;1.67;;
45522;SDS011;31254;51.680;5.394;2023-09-19T05:38:56;9.57;;;1.60;;
45522;SDS011;31254;51.680;5.394;2023-09-19T05:41:22;5.47;;;1.58;;
45522;SDS011;31254;51.680;5.394;2023-09-19T05:43:50;5.78;;;1.40;;
45522;SDS011;31254;51.680;5.394;2023-09-19T05:46:17;9.30;;;1.80;;
45522;SDS011;31254;51.680;5.394;2023-09-19T05:48:47;15.15;;;2.35;;
45522;SDS011;31254;51.680;5.394;2023-09-19T05:51:16;9.60;;;2.05;;
45522;SDS011;31254;51.680;5.394;2023-09-19T05:53:44;10.52;;;1.83;;
45522;SDS011;31254;51.680;5.394;2023-09-19T05:56:11;12.98;;;2.40;;
45522;SDS011;31254;51.680;5.394;2023-09-19T05:58:37;11.20;;;2.25;;
45522;SDS011;31254;51.680;5.394;2023-09-19T06:01:05;10.32;;;2.67;;
45522;SDS011;31254;51.680;5.394;2023-09-19T06:03:33;8.18;;;1.98;;
45522;SDS011;31254;51.680;5.394;2023-09-19T06:06:01;8.00;;;1.48;;
45522;SDS011;31254;51.680;5.394;2023-09-19T06:08:28;9.93;;;1.80;;
45522;SDS011;31254;51.680;5.394;2023-09-19T06:10:56;7.95;;;2.03;;
45522;SDS011;31254;51.680;5.394;2023-09-19T06:13:23;6.45;;;1.80;;
45522;SDS011;31254;51.680;5.394;2023-09-19T06:15:54;10.00;;;1.80;;
45522;SDS011;31254;51.680;5.394;2023-09-19T06:18:22;5.82;;;1.73;;
45522;SDS011;31254;51.680;5.394;2023-09-19T06:20:52;10.95;;;1.77;;
45522;SDS011;31254;51.680;5.394;2023-09-19T06:23:20;10.90;;;1.85;;
45522;SDS011;31254;51.680;5.394;2023-09-19T06:25:47;7.95;;;1.60;;
45522;SDS011;31254;51.680;5.394;2023-09-19T06:28:14;9.30;;;2.55;;
45522;SDS011;31254;51.680;5.394;2023-09-19T06:30:44;7.93;;;1.92;;
45522;SDS011;31254;51.680;5.394;2023-09-19T06:33:11;12.55;;;2.55;;
45522;SDS011;31254;51.680;5.394;2023-09-19T06:35:43;8.48;;;2.17;;
45522;SDS011;31254;51.680;5.394;2023-09-19T06:38:13;9.20;;;1.88;;
45522;SDS011;31254;51.680;5.394;2023-09-19T06:40:41;7.03;;;1.60;;
45522;SDS011;31254;51.680;5.394;2023-09-19T06:43:09;7.82;;;1.85;;
45522;SDS011;31254;51.680;5.394;2023-09-19T06:45:37;8.10;;;1.80;;
45522;SDS011;31254;51.680;5.394;2023-09-19T06:48:04;8.30;;;1.80;;
45522;SDS011;31254;51.680;5.394;2023-09-19T06:50:32;7.78;;;1.77;;
45522;SDS011;31254;51.680;5.394;2023-09-19T06:53:00;9.15;;;2.20;;
45522;SDS011;31254;51.680;5.394;2023-09-19T06:55:28;4.15;;;1.55;;
45522;SDS011;31254;51.680;5.394;2023-09-19T06:57:58;5.93;;;1.60;;
45522;SDS011;31254;51.680;5.394;2023-09-19T07:00:25;11.88;;;2.78;;
45522;SDS011;31254;51.680;5.394;2023-09-19T07:03:03;6.72;;;1.70;;
45522;SDS011;31254;51.680;5.394;2023-09-19T07:05:34;8.88;;;2.15;;
45522;SDS011;31254;51.680;5.394;2023-09-19T07:08:06;11.55;;;2.25;;
45522;SDS011;31254;51.680;5.394;2023-09-19T07:10:34;8.75;;;2.30;;
45522;SDS011;31254;51.680;5.394;2023-09-19T07:13:02;11.52;;;1.85;;
45522;SDS011;31254;51.680;5.394;2023-09-19T07:15:31;10.98;;;2.35;;
45522;SDS011;31254;51.680;5.394;2023-09-19T07:18:06;7.40;;;1.80;;
45522;SDS011;31254;51.680;5.394;2023-09-19T07:20:32;9.15;;;2.15;;
45522;SDS011;31254;51.680;5.394;2023-09-19T07:23:03;7.57;;;1.85;;
45522;SDS011;31254;51.680;5.394;2023-09-19T07:25:30;7.65;;;1.70;;
45522;SDS011;31254;51.680;5.394;2023-09-19T07:27:57;12.35;;;2.45;;
45522;SDS011;31254;51.680;5.394;2023-09-19T07:30:27;9.55;;;1.80;;
45522;SDS011;31254;51.680;5.394;2023-09-19T07:32:57;10.38;;;2.17;;
45522;SDS011;31254;51.680;5.394;2023-09-19T07:35:24;8.80;;;1.77;;
45522;SDS011;31254;51.680;5.394;2023-09-19T07:37:52;6.82;;;2.03;;
45522;SDS011;31254;51.680;5.394;2023-09-19T07:40:18;8.75;;;1.77;;
45522;SDS011;31254;51.680;5.394;2023-09-19T07:42:47;8.43;;;2.00;;
45522;SDS011;31254;51.680;5.394;2023-09-19T07:45:14;10.18;;;2.10;;
45522;SDS011;31254;51.680;5.394;2023-09-19T07:47:47;7.35;;;2.00;;
45522;SDS011;31254;51.680;5.394;2023-09-19T07:50:16;7.35;;;1.95;;
45522;SDS011;31254;51.680;5.394;2023-09-19T07:52:45;11.95;;;2.10;;
45522;SDS011;31254;51.680;5.394;2023-09-19T07:55:19;12.65;;;2.13;;
45522;SDS011;31254;51.680;5.394;2023-09-19T07:57:50;10.20;;;2.08;;
45522;SDS011;31254;51.680;5.394;2023-09-19T08:00:16;7.50;;;1.80;;
45522;SDS011;31254;51.680;5.394;2023-09-19T08:02:43;9.15;;;1.90;;
45522;SDS011;31254;51.680;5.394;2023-09-19T08:05:11;8.25;;;2.15;;
45522;SDS011;31254;51.680;5.394;2023-09-19T08:07:42;7.70;;;1.90;;
45522;SDS011;31254;51.680;5.394;2023-09-19T08:10:10;9.93;;;2.38;;
45522;SDS011;31254;51.680;5.394;2023-09-19T08:12:39;12.18;;;1.83;;
45522;SDS011;31254;51.680;5.394;2023-09-19T08:15:13;7.18;;;1.85;;
45522;SDS011;31254;51.680;5.394;2023-09-19T08:17:41;8.90;;;2.03;;
45522;SDS011;31254;51.680;5.394;2023-09-19T08:20:09;8.90;;;2.03;;
45522;SDS011;31254;51.680;5.394;2023-09-19T08:22:50;9.27;;;2.08;;
45522;SDS011;31254;51.680;5.394;2023-09-19T08:25:26;12.27;;;2.13;;
45522;SDS011;31254;51.680;5.394;2023-09-19T08:27:58;7.63;;;1.80;;
45522;SDS011;31254;51.680;5.394;2023-09-19T08:30:27;10.55;;;1.80;;
45522;SDS011;31254;51.680;5.394;2023-09-19T08:32:57;8.75;;;2.55;;
45522;SDS011;31254;51.680;5.394;2023-09-19T08:35:28;9.35;;;2.03;;
45522;SDS011;31254;51.680;5.394;2023-09-19T08:37:55;8.70;;;1.85;;
45522;SDS011;31254;51.680;5.394;2023-09-19T08:40:23;8.75;;;1.98;;
45522;SDS011;31254;51.680;5.394;2023-09-19T08:42:50;8.30;;;2.05;;
45522;SDS011;31254;51.680;5.394;2023-09-19T08:45:19;9.40;;;1.80;;
45522;SDS011;31254;51.680;5.394;2023-09-19T08:47:55;7.95;;;2.03;;
45522;SDS011;31254;51.680;5.394;2023-09-19T08:50:29;13.00;;;2.45;;
45522;SDS011;31254;51.680;5.394;2023-09-19T08:52:56;8.32;;;2.05;;
45522;SDS011;31254;51.680;5.394;2023-09-19T08:55:35;8.45;;;1.52;;
45522;SDS011;31254;51.680;5.394;2023-09-19T08:58:03;8.93;;;2.13;;
45522;SDS011;31254;51.680;5.394;2023-09-19T09:00:33;10.13;;;2.00;;
45522;SDS011;31254;51.680;5.394;2023-09-19T09:03:01;9.27;;;1.85;;
45522;SDS011;31254;51.680;5.394;2023-09-19T09:05:30;7.78;;;1.67;;
45522;SDS011;31254;51.680;5.394;2023-09-19T09:07:59;8.43;;;2.10;;
45522;SDS011;31254;51.680;5.394;2023-09-19T09:10:27;5.18;;;1.52;;
45522;SDS011;31254;51.680;5.394;2023-09-19T09:12:54;7.75;;;1.80;;
45522;SDS011;31254;51.680;5.394;2023-09-19T09:15:24;7.07;;;2.25;;
45522;SDS011;31254;51.680;5.394;2023-09-19T09:17:51;10.30;;;2.08;;
45522;SDS011;31254;51.680;5.394;2023-09-19T09:20:21;7.20;;;1.92;;
45522;SDS011;31254;51.680;5.394;2023-09-19T09:22:54;10.52;;;2.30;;
45522;SDS011;31254;51.680;5.394;2023-09-19T09:25:22;9.80;;;2.25;;
45522;SDS011;31254;51.680;5.394;2023-09-19T09:27:58;8.68;;;1.98;;
45522;SDS011;31254;51.680;5.394;2023-09-19T09:30:36;10.55;;;2.35;;
45522;SDS011;31254;51.680;5.394;2023-09-19T09:33:09;8.60;;;1.88;;
45522;SDS011;31254;51.680;5.394;2023-09-19T09:38:27;10.95;;;2.10;;
45522;SDS011;31254;51.680;5.394;2023-09-19T09:40:59;9.80;;;1.60;;
45522;SDS011;31254;51.680;5.394;2023-09-19T09:43:34;9.40;;;2.10;;
45522;SDS011;31254;51.680;5.394;2023-09-19T09:46:10;7.70;;;2.13;;
45522;SDS011;31254;51.680;5.394;2023-09-19T09:49:02;10.80;;;2.15;;
45522;SDS011;31254;51.680;5.394;2023-09-19T09:51:48;8.20;;;1.70;;
45522;SDS011;31254;51.680;5.394;2023-09-19T09:54:29;11.93;;;2.10;;
45522;SDS011;31254;51.680;5.394;2023-09-19T09:57:09;7.60;;;2.15;;
45522;SDS011;31254;51.680;5.394;2023-09-19T10:00:02;8.80;;;2.10;;
45522;SDS011;31254;51.680;5.394;2023-09-19T10:02:38;7.20;;;1.60;;
45522;SDS011;31254;51.680;5.394;2023-09-19T10:05:18;7.78;;;1.40;;
45522;SDS011;31254;51.680;5.394;2023-09-19T10:07:48;9.13;;;1.95;;
45522;SDS011;31254;51.680;5.394;2023-09-19T10:10:34;7.40;;;1.73;;
45522;SDS011;31254;51.680;5.394;2023-09-19T10:13:08;10.68;;;2.13;;
45522;SDS011;31254;51.680;5.394;2023-09-19T10:15:40;11.73;;;1.92;;
45522;SDS011;31254;51.680;5.394;2023-09-19T10:18:12;4.90;;;1.55;;
45522;SDS011;31254;51.680;5.394;2023-09-19T10:20:44;6.47;;;1.88;;
45522;SDS011;31254;51.680;5.394;2023-09-19T10:23:12;6.07;;;1.70;;
45522;SDS011;31254;51.680;5.394;2023-09-19T10:29:30;9.52;;;1.70;;
45522;SDS011;31254;51.680;5.394;2023-09-19T10:31:59;7.47;;;2.20;;
45522;SDS011;31254;51.680;5.394;2023-09-19T10:34:30;8.93;;;2.20;;
45522;SDS011;31254;51.680;5.394;2023-09-19T10:37:02;8.40;;;1.80;;
45522;SDS011;31254;51.680;5.394;2023-09-19T10:39:32;6.47;;;1.85;;
45522;SDS011;31254;51.680;5.394;2023-09-19T10:42:01;6.18;;;1.60;;
45522;SDS011;31254;51.680;5.394;2023-09-19T10:44:32;8.07;;;1.95;;
45522;SDS011;31254;51.680;5.394;2023-09-19T10:46:59;7.95;;;1.90;;
45522;SDS011;31254;51.680;5.394;2023-09-19T10:49:26;6.93;;;1.70;;
45522;SDS011;31254;51.680;5.394;2023-09-19T10:51:54;7.32;;;1.95;;
45522;SDS011;31254;51.680;5.394;2023-09-19T10:54:26;8.75;;;1.60;;
45522;SDS011;31254;51.680;5.394;2023-09-19T10:56:58;7.90;;;2.00;;
45522;SDS011;31254;51.680;5.394;2023-09-19T10:59:26;7.88;;;1.90;;
45522;SDS011;31254;51.680;5.394;2023-09-19T11:02:15;8.82;;;1.95;;
45522;SDS011;31254;51.680;5.394;2023-09-19T11:04:45;12.38;;;1.60;;
45522;SDS011;31254;51.680;5.394;2023-09-19T11:07:14;4.47;;;1.75;;
45522;SDS011;31254;51.680;5.394;2023-09-19T11:09:51;7.95;;;1.90;;
45522;SDS011;31254;51.680;5.394;2023-09-19T11:15:07;7.10;;;1.70;;
45522;SDS011;31254;51.680;5.394;2023-09-19T11:17:40;5.65;;;1.65;;
45522;SDS011;31254;51.680;5.394;2023-09-19T11:30:32;8.02;;;1.85;;
45522;SDS011;31254;51.680;5.394;2023-09-19T11:33:15;6.05;;;1.73;;
45522;SDS011;31254;51.680;5.394;2023-09-19T11:36:01;6.00;;;1.63;;
45522;SDS011;31254;51.680;5.394;2023-09-19T11:43:53;5.63;;;1.80;;
45522;SDS011;31254;51.680;5.394;2023-09-19T11:46:23;6.28;;;1.48;;
45522;SDS011;31254;51.680;5.394;2023-09-19T11:48:51;6.57;;;1.67;;
45522;SDS011;31254;51.680;5.394;2023-09-19T11:51:24;8.40;;;1.35;;
45522;SDS011;31254;51.680;5.394;2023-09-19T11:53:55;4.30;;;1.40;;
45522;SDS011;31254;51.680;5.394;2023-09-19T11:56:26;6.63;;;1.50;;
45522;SDS011;31254;51.680;5.394;2023-09-19T11:58:58;7.03;;;1.63;;
45522;SDS011;31254;51.680;5.394;2023-09-19T12:01:30;4.53;;;1.30;;
45522;SDS011;31254;51.680;5.394;2023-09-19T12:04:00;7.35;;;1.50;;
45522;SDS011;31254;51.680;5.394;2023-09-19T12:06:31;6.43;;;1.10;;
45522;SDS011;31254;51.680;5.394;2023-09-19T12:09:02;5.80;;;1.60;;
45522;SDS011;31254;51.680;5.394;2023-09-19T12:11:33;4.80;;;1.35;;
45522;SDS011;31254;51.680;5.394;2023-09-19T12:14:09;4.80;;;1.30;;
45522;SDS011;31254;51.680;5.394;2023-09-19T12:16:36;7.63;;;1.40;;
45522;SDS011;31254;51.680;5.394;2023-09-19T12:22:02;7.18;;;1.63;;
45522;SDS011;31254;51.680;5.394;2023-09-19T12:24:35;4.13;;;0.90;;
45522;SDS011;31254;51.680;5.394;2023-09-19T12:27:05;5.38;;;1.40;;
45522;SDS011;31254;51.680;5.394;2023-09-19T12:32:12;4.97;;;1.13;;
45522;SDS011;31254;51.680;5.394;2023-09-19T12:34:41;8.32;;;1.00;;
45522;SDS011;31254;51.680;5.394;2023-09-19T12:37:14;2.80;;;1.08;;
45522;SDS011;31254;51.680;5.394;2023-09-19T12:39:49;4.95;;;1.40;;
45522;SDS011;31254;51.680;5.394;2023-09-19T12:42:25;4.63;;;1.02;;
45522;SDS011;31254;51.680;5.394;2023-09-19T12:44:59;3.60;;;0.95;;
45522;SDS011;31254;51.680;5.394;2023-09-19T12:47:27;5.38;;;0.90;;
45522;SDS011;31254;51.680;5.394;2023-09-19T12:52:41;7.22;;;1.63;;
45522;SDS011;31254;51.680;5.394;2023-09-19T12:55:23;3.90;;;1.00;;
45522;SDS011;31254;51.680;5.394;2023-09-19T13:00:36;5.07;;;1.20;;
45522;SDS011;31254;51.680;5.394;2023-09-19T13:03:18;6.07;;;1.30;;
45522;SDS011;31254;51.680;5.394;2023-09-19T13:05:55;4.78;;;1.48;;
45522;SDS011;31254;51.680;5.394;2023-09-19T13:08:25;7.75;;;1.20;;
45522;SDS011;31254;51.680;5.394;2023-09-19T13:11:09;4.25;;;1.38;;
45522;SDS011;31254;51.680;5.394;2023-09-19T13:13:40;4.05;;;1.05;;
45522;SDS011;31254;51.680;5.394;2023-09-19T13:16:11;3.67;;;0.90;;
45522;SDS011;31254;51.680;5.394;2023-09-19T13:18:44;6.00;;;0.98;;
45522;SDS011;31254;51.680;5.394;2023-09-19T13:21:13;5.70;;;0.85;;
45522;SDS011;31254;51.680;5.394;2023-09-19T13:23:54;2.70;;;0.88;;
45522;SDS011;31254;51.680;5.394;2023-09-19T13:26:25;2.97;;;0.60;;
45522;SDS011;31254;51.680;5.394;2023-09-19T13:28:52;2.72;;;0.85;;
45522;SDS011;31254;51.680;5.394;2023-09-19T13:31:19;4.88;;;0.98;;
45522;SDS011;31254;51.680;5.394;2023-09-19T13:33:46;5.55;;;1.00;;
45522;SDS011;31254;51.680;5.394;2023-09-19T13:36:14;3.03;;;0.70;;
45522;SDS011;31254;51.680;5.394;2023-09-19T13:38:41;6.15;;;0.80;;
45522;SDS011;31254;51.680;5.394;2023-09-19T13:41:13;3.35;;;0.80;;
45522;SDS011;31254;51.680;5.394;2023-09-19T13:43:40;3.55;;;0.82;;
45522;SDS011;31254;51.680;5.394;2023-09-19T13:46:06;4.53;;;1.10;;
45522;SDS011;31254;51.680;5.394;2023-09-19T13:48:34;4.63;;;1.13;;
45522;SDS011;31254;51.680;5.394;2023-09-19T13:51:02;3.72;;;0.90;;
45522;SDS011;31254;51.680;5.394;2023-09-19T13:53:29;2.17;;;0.70;;
45522;SDS011;31254;51.680;5.394;2023-09-19T13:55:56;3.25;;;0.80;;
45522;SDS011;31254;51.680;5.394;2023-09-19T13:58:23;4.82;;;0.77;;
45522;SDS011;31254;51.680;5.394;2023-09-19T14:00:50;1.83;;;0.80;;
45522;SDS011;31254;51.680;5.394;2023-09-19T14:03:17;5.68;;;0.93;;
45522;SDS011;31254;51.680;5.394;2023-09-19T14:05:44;5.45;;;0.90;;
45522;SDS011;31254;51.680;5.394;2023-09-19T14:08:10;4.78;;;0.82;;
45522;SDS011;31254;51.680;5.394;2023-09-19T14:10:39;4.53;;;0.80;;
45522;SDS011;31254;51.680;5.394;2023-09-19T14:13:06;2.45;;;0.80;;
45522;SDS011;31254;51.680;5.394;2023-09-19T14:15:32;4.05;;;1.00;;
45522;SDS011;31254;51.680;5.394;2023-09-19T14:18:04;6.53;;;1.15;;
45522;SDS011;31254;51.680;5.394;2023-09-19T14:20:31;3.10;;;0.98;;
45522;SDS011;31254;51.680;5.394;2023-09-19T14:22:58;2.50;;;0.75;;
45522;SDS011;31254;51.680;5.394;2023-09-19T14:25:28;3.22;;;0.73;;
45522;SDS011;31254;51.680;5.394;2023-09-19T14:27:56;7.95;;;2.05;;
45522;SDS011;31254;51.680;5.394;2023-09-19T14:30:23;2.33;;;1.02;;
45522;SDS011;31254;51.680;5.394;2023-09-19T14:32:50;3.80;;;0.90;;
45522;SDS011;31254;51.680;5.394;2023-09-19T14:35:17;3.65;;;0.70;;
45522;SDS011;31254;51.680;5.394;2023-09-19T14:37:43;4.22;;;0.93;;
45522;SDS011;31254;51.680;5.394;2023-09-19T14:40:12;5.70;;;1.00;;
45522;SDS011;31254;51.680;5.394;2023-09-19T14:42:41;4.78;;;0.90;;
45522;SDS011;31254;51.680;5.394;2023-09-19T14:45:10;5.28;;;0.98;;
45522;SDS011;31254;51.680;5.394;2023-09-19T14:47:37;4.65;;;0.93;;
45522;SDS011;31254;51.680;5.394;2023-09-19T14:50:05;3.83;;;1.17;;
45522;SDS011;31254;51.680;5.394;2023-09-19T14:55:23;3.30;;;0.90;;
45522;SDS011;31254;51.680;5.394;2023-09-19T14:57:50;3.65;;;1.23;;
45522;SDS011;31254;51.680;5.394;2023-09-19T15:00:18;4.78;;;1.10;;
45522;SDS011;31254;51.680;5.394;2023-09-19T15:02:46;3.90;;;0.95;;
45522;SDS011;31254;51.680;5.394;2023-09-19T15:05:16;4.47;;;0.80;;
45522;SDS011;31254;51.680;5.394;2023-09-19T15:07:46;6.78;;;1.00;;
45522;SDS011;31254;51.680;5.394;2023-09-19T15:10:12;4.93;;;1.00;;
45522;SDS011;31254;51.680;5.394;2023-09-19T15:12:39;4.15;;;0.93;;
45522;SDS011;31254;51.680;5.394;2023-09-19T15:15:06;3.55;;;1.10;;
45522;SDS011;31254;51.680;5.394;2023-09-19T15:17:36;2.60;;;0.85;;
45522;SDS011;31254;51.680;5.394;2023-09-19T15:20:03;3.92;;;1.08;;
45522;SDS011;31254;51.680;5.394;2023-09-19T15:22:33;2.80;;;0.90;;
45522;SDS011;31254;51.680;5.394;2023-09-19T15:25:01;7.93;;;1.40;;
45522;SDS011;31254;51.680;5.394;2023-09-19T15:27:28;4.68;;;1.10;;
45522;SDS011;31254;51.680;5.394;2023-09-19T15:29:57;3.55;;;1.02;;
45522;SDS011;31254;51.680;5.394;2023-09-19T15:32:31;4.65;;;1.00;;
45522;SDS011;31254;51.680;5.394;2023-09-19T15:34:58;6.90;;;1.35;;
45522;SDS011;31254;51.680;5.394;2023-09-19T15:37:25;3.65;;;1.10;;
45522;SDS011;31254;51.680;5.394;2023-09-19T15:39:52;6.13;;;1.50;;
45522;SDS011;31254;51.680;5.394;2023-09-19T15:42:19;7.45;;;1.42;;
45522;SDS011;31254;51.680;5.394;2023-09-19T15:44:46;4.72;;;1.10;;
45522;SDS011;31254;51.680;5.394;2023-09-19T15:47:14;5.88;;;1.02;;
45522;SDS011;31254;51.680;5.394;2023-09-19T15:49:41;4.45;;;1.30;;
45522;SDS011;31254;51.680;5.394;2023-09-19T15:52:08;6.30;;;1.10;;
45522;SDS011;31254;51.680;5.394;2023-09-19T15:54:35;6.65;;;1.40;;
45522;SDS011;31254;51.680;5.394;2023-09-19T15:57:01;7.00;;;1.35;;
45522;SDS011;31254;51.680;5.394;2023-09-19T15:59:28;4.55;;;1.30;;